Time;durP1;ratioP1;P1;durP2;ratioP2;P2;SDS_P1;SDS_P2;PMS_P1;PMS_P2;Temp;Humidity;BMP_temperature;BMP_pressure;BME280_temperature;BME280_humidity;BME280_pressure;Samples;Min_cycle;Max_cycle;Signal;HPM_P1;HPM_P2
2024/01/08 00:06:25;;;;;;;2.40;1.50;;;;;;;19.77;49.07;97144.34;20881438;28;20405;-60
2024/01/08 00:16:45;;;;;;;1.88;1.50;;;;;;;19.74;49.30;97134.19;20896994;28;20056;-59
2024/01/08 00:27:04;;;;;;;1.80;1.17;;;;;;;19.69;49.41;97150.53;20893217;28;20048;-59
2024/01/08 00:37:23;;;;;;;1.90;1.40;;;;;;;19.65;49.13;97153.06;20898986;28;20409;-59
2024/01/08 00:47:43;;;;;;;2.35;1.67;;;;;;;19.60;49.00;97150.53;20895168;28;20517;-59
2024/01/08 00:58:03;;;;;;;1.67;1.40;;;;;;;19.54;49.01;97157.16;20889080;28;20053;-60
2024/01/08 01:08:23;;;;;;;2.13;1.40;;;;;;;19.47;49.26;97165.75;20886573;28;20437;-60
2024/01/08 01:18:42;;;;;;;1.88;1.45;;;;;;;19.46;49.00;97169.53;20886226;28;20713;-57
2024/01/08 01:29:02;;;;;;;1.83;1.40;;;;;;;19.40;48.97;97173.50;20881286;28;20083;-59
2024/01/08 01:39:21;;;;;;;1.55;1.35;;;;;;;19.36;49.05;97172.53;20883206;28;20516;-59
2024/01/08 01:49:41;;;;;;;1.40;1.30;;;;;;;19.30;49.15;97185.41;20862736;28;20064;-59
2024/01/08 02:00:01;;;;;;;2.17;1.48;;;;;;;19.27;48.94;97177.16;20845208;28;1135819;-60
2024/01/08 02:10:21;;;;;;;1.40;1.30;;;;;;;19.26;48.93;97172.84;20904951;28;20397;-59
2024/01/08 02:20:40;;;;;;;1.95;1.20;;;;;;;19.19;48.97;97172.47;20887822;28;21413;-59
2024/01/08 02:31:00;;;;;;;1.52;1.40;;;;;;;19.15;48.93;97170.44;20865414;28;20096;-59
2024/01/08 02:41:20;;;;;;;1.80;1.60;;;;;;;19.08;48.87;97180.88;20911575;28;20045;-60
2024/01/08 02:51:39;;;;;;;1.38;1.27;;;;;;;19.05;48.82;97183.38;20885968;28;20052;-58
2024/01/08 03:01:59;;;;;;;1.35;1.25;;;;;;;19.01;49.01;97198.63;20884229;28;20053;-59
2024/01/08 03:12:18;;;;;;;1.40;1.30;;;;;;;18.99;48.95;97201.63;20860732;28;20064;-60
2024/01/08 03:22:39;;;;;;;1.35;1.25;;;;;;;18.95;49.03;97208.75;20874298;28;20080;-57
2024/01/08 03:32:59;;;;;;;1.50;1.40;;;;;;;18.92;48.97;97206.69;20888465;28;20068;-57
2024/01/08 03:43:19;;;;;;;1.30;1.20;;;;;;;18.84;48.99;97212.84;20914625;28;20053;-60
2024/01/08 03:53:38;;;;;;;1.92;1.33;;;;;;;18.79;48.94;97208.31;20885516;28;20544;-57
2024/01/08 04:03:58;;;;;;;1.55;1.40;;;;;;;18.76;48.97;97220.53;20881827;28;20706;-58
2024/01/08 04:14:17;;;;;;;1.42;1.30;;;;;;;18.73;49.00;97226.56;20882253;28;20055;-59
2024/01/08 04:24:37;;;;;;;1.65;1.30;;;;;;;18.67;49.07;97243.97;20883063;28;20053;-60
2024/01/08 04:34:56;;;;;;;1.38;1.27;;;;;;;18.61;48.73;97242.50;20883622;28;20064;-60
2024/01/08 04:45:16;;;;;;;1.30;1.20;;;;;;;18.59;48.99;97266.31;20810831;28;20504;-60
2024/01/08 04:55:35;;;;;;;1.48;1.35;;;;;;;18.55;48.90;97278.81;20892150;28;20421;-59
2024/01/08 05:05:55;;;;;;;1.45;1.35;;;;;;;18.52;49.04;97279.41;20865511;28;20053;-60
2024/01/08 05:16:14;;;;;;;1.70;1.60;;;;;;;18.54;49.89;97288.81;20888812;28;20091;-59
2024/01/08 05:26:34;;;;;;;1.40;1.30;;;;;;;18.56;50.21;97302.81;20927079;28;20040;-59
2024/01/08 05:36:54;;;;;;;1.40;1.30;;;;;;;18.64;49.96;97308.56;20872881;28;20053;-57
2024/01/08 05:47:13;;;;;;;4.88;1.63;;;;;;;18.68;49.72;97325.72;20911007;28;20431;-58
2024/01/08 05:57:33;;;;;;;2.58;1.35;;;;;;;18.70;49.96;97335.13;20907956;28;20053;-54
2024/01/08 06:07:52;;;;;;;4.55;2.53;;;;;;;18.70;49.62;97337.84;20917270;28;20061;-54
2024/01/08 06:18:12;;;;;;;13.55;3.92;;;;;;;18.77;48.93;97353.59;20865483;28;20056;-55
2024/01/08 06:28:32;;;;;;;12.07;4.38;;;;;;;18.90;48.51;97365.50;20900630;28;20060;-54
2024/01/08 06:38:52;;;;;;;17.38;5.15;;;;;;;18.98;48.34;97364.75;20891964;28;20053;-54
2024/01/08 06:49:11;;;;;;;11.68;4.60;;;;;;;19.02;48.11;97378.44;20811466;28;20452;-55
2024/01/08 06:59:31;;;;;;;16.17;4.80;;;;;;;19.09;48.08;97393.13;20810750;28;20567;-55
2024/01/08 07:09:50;;;;;;;10.10;4.55;;;;;;;19.16;47.90;97406.97;20855511;28;20174;-58
2024/01/08 07:20:10;;;;;;;13.23;4.60;;;;;;;19.23;47.81;97408.44;20891559;28;20049;-58
2024/01/08 07:30:29;;;;;;;13.63;4.55;;;;;;;19.31;47.45;97407.72;20917441;28;20056;-57
2024/01/08 07:40:49;;;;;;;11.65;4.20;;;;;;;19.41;47.11;97418.28;20890829;28;20053;-58
2024/01/08 07:51:10;;;;;;;9.73;4.25;;;;;;;19.49;46.86;97444.56;20890674;28;20055;-56
2024/01/08 08:01:29;;;;;;;9.52;3.97;;;;;;;19.56;46.73;97463.03;20896356;28;20045;-58
2024/01/08 08:11:49;;;;;;;7.82;3.70;;;;;;;19.67;46.32;97479.81;20889437;28;20052;-58
2024/01/08 08:22:12;;;;;;;8.50;3.80;;;;;;;19.75;46.13;97495.31;20916294;28;20060;-58
2024/01/08 08:32:32;;;;;;;6.55;3.58;;;;;;;19.89;46.15;97508.75;20902907;28;20045;-57
2024/01/08 08:42:52;;;;;;;6.65;3.45;;;;;;;19.95;45.76;97519.16;20904079;28;20057;-58
2024/01/08 08:53:11;;;;;;;6.88;3.70;;;;;;;19.97;45.83;97526.94;20903752;28;20383;-57
2024/01/08 09:03:30;;;;;;;5.68;3.28;;;;;;;20.07;45.38;97542.09;20901387;28;20064;-57
2024/01/08 09:13:49;;;;;;;5.25;3.28;;;;;;;20.15;45.48;97541.38;20902695;28;20158;-58
2024/01/08 09:24:09;;;;;;;4.93;3.05;;;;;;;20.22;45.07;97549.84;20923442;28;20045;-55
2024/01/08 09:34:28;;;;;;;6.13;3.17;;;;;;;20.31;44.89;97547.19;20898988;28;20053;-54
2024/01/08 09:44:51;;;;;;;4.30;3.10;;;;;;;20.37;44.71;97561.38;20899026;28;20053;-54
2024/01/08 09:55:11;;;;;;;4.68;3.30;;;;;;;20.40;44.67;97556.13;20890438;28;20057;-55
2024/01/08 10:05:34;;;;;;;4.20;2.97;;;;;;;20.39;44.69;97559.16;20918673;28;20048;-55
2024/01/08 10:15:54;;;;;;;4.22;2.80;;;;;;;20.43;44.63;97562.84;20923567;28;20155;-53
2024/01/08 10:26:16;;;;;;;4.70;3.05;;;;;;;20.47;44.61;97574.66;20896065;28;20053;-54
2024/01/08 10:36:37;;;;;;;4.32;2.80;;;;;;;20.44;44.69;97581.47;20894053;28;20107;-56
2024/01/08 10:46:58;;;;;;;4.75;2.80;;;;;;;20.41;44.58;97570.47;20892305;28;20060;-57
2024/01/08 10:57:18;;;;;;;3.40;2.60;;;;;;;20.34;44.93;97571.69;20891944;28;20061;-55
2024/01/08 11:07:40;;;;;;;3.58;2.67;;;;;;;20.34;44.68;97577.09;20892000;28;20049;-55
2024/01/08 11:18:03;;;;;;;3.90;2.97;;;;;;;20.38;44.57;97582.72;20892475;28;20583;-57
2024/01/08 11:28:23;;;;;;;3.17;2.53;;;;;;;20.37;44.79;97585.75;20891449;28;20460;-58
2024/01/08 11:38:59;;;;;;;3.70;2.47;;;;;;;20.30;44.78;97595.06;20891774;28;20060;-58
2024/01/08 11:49:19;;;;;;;3.37;2.50;;;;;;;20.28;44.96;97610.03;20891593;28;20048;-57
2024/01/08 11:59:38;;;;;;;3.38;2.53;;;;;;;20.22;44.94;97597.75;20892823;28;20071;-57
2024/01/08 12:10:04;;;;;;;3.88;2.40;;;;;;;20.16;44.85;97594.38;20933977;28;20052;-57
2024/01/08 12:20:26;;;;;;;2.80;2.33;;;;;;;20.14;45.09;97586.53;20906490;28;20056;-57
2024/01/08 12:30:46;;;;;;;3.10;2.55;;;;;;;20.08;45.03;97587.00;20905945;28;20360;-58
2024/01/08 12:41:08;;;;;;;2.42;2.03;;;;;;;20.09;44.87;97592.09;20905081;28;20053;-57
2024/01/08 12:51:27;;;;;;;2.83;2.50;;;;;;;20.08;44.96;97605.94;20903666;28;20612;-58
2024/01/08 13:01:47;;;;;;;2.60;2.40;;;;;;;20.08;44.95;97611.34;20908801;28;20057;-54
2024/01/08 13:12:07;;;;;;;3.10;2.45;;;;;;;20.05;45.08;97618.16;20899527;28;20060;-54
2024/01/08 13:22:27;;;;;;;3.72;2.53;;;;;;;20.03;44.90;97633.91;20899840;28;20470;-54
2024/01/08 13:32:46;;;;;;;3.45;2.30;;;;;;;19.99;45.06;97632.09;20927073;28;20045;-55
2024/01/08 13:43:06;;;;;;;3.42;2.17;;;;;;;19.89;45.30;97636.63;20911791;28;20049;-55
2024/01/08 13:53:26;;;;;;;2.53;2.25;;;;;;;19.88;45.41;97651.28;20899577;28;20060;-54
2024/01/08 14:03:45;;;;;;;2.60;2.40;;;;;;;19.86;45.46;97664.31;20897207;28;20064;-54
2024/01/08 14:14:04;;;;;;;2.40;2.03;;;;;;;19.82;45.45;97668.72;20897229;28;20118;-57
2024/01/08 14:24:24;;;;;;;2.30;2.10;;;;;;;19.74;45.64;97669.44;20896415;28;20049;-58
2024/01/08 14:34:43;;;;;;;3.42;2.20;;;;;;;19.68;45.66;97670.59;20921245;28;20055;-57
2024/01/08 14:45:07;;;;;;;2.58;2.30;;;;;;;19.60;45.75;97690.25;20895008;28;20049;-57
2024/01/08 14:55:26;;;;;;;2.30;2.10;;;;;;;19.55;45.85;97696.56;20887919;28;20107;-58
2024/01/08 15:05:46;;;;;;;2.50;2.30;;;;;;;19.52;45.85;97711.50;20892738;28;20052;-58
2024/01/08 15:16:06;;;;;;;2.45;2.25;;;;;;;19.39;46.04;97714.22;20892768;28;20064;-58
2024/01/08 15:26:28;;;;;;;2.47;2.15;;;;;;;19.39;45.92;97717.72;20891146;28;20049;-55
2024/01/08 15:36:48;;;;;;;3.35;1.95;;;;;;;19.33;46.18;97733.22;20901039;28;20144;-53
2024/01/08 15:47:08;;;;;;;2.00;1.90;;;;;;;19.28;46.06;97748.72;20916676;28;20764;-55
2024/01/08 15:57:27;;;;;;;2.78;2.30;;;;;;;19.21;46.20;97756.41;20908050;28;20064;-55
2024/01/08 16:07:47;;;;;;;2.50;2.30;;;;;;;19.17;46.19;97762.41;20889889;28;20065;-54
2024/01/08 16:18:06;;;;;;;3.10;2.33;;;;;;;19.16;46.05;97782.41;20889264;28;20057;-55
2024/01/08 16:28:26;;;;;;;2.40;2.17;;;;;;;19.27;46.04;97803.88;20889176;28;20060;-55
2024/01/08 16:38:47;;;;;;;2.58;2.10;;;;;;;19.26;45.83;97813.84;20889039;28;20053;-55
2024/01/08 16:49:06;;;;;;;2.50;2.28;;;;;;;19.33;45.56;97826.97;20895993;28;20053;-58
2024/01/08 16:59:26;;;;;;;2.80;2.50;;;;;;;19.38;45.00;97836.88;20884538;28;20064;-57
2024/01/08 17:09:47;;;;;;;2.97;2.40;;;;;;;19.45;44.74;97851.63;20888324;28;20478;-58
2024/01/08 17:20:07;;;;;;;3.30;2.58;;;;;;;19.53;46.00;97859.03;20887435;28;20110;-61
2024/01/08 17:30:27;;;;;;;2.97;2.67;;;;;;;19.65;46.14;97868.56;20909951;28;20072;-61
2024/01/08 17:40:46;;;;;;;4.45;2.75;;;;;;;19.76;46.17;97883.53;20905674;28;20049;-58
2024/01/08 17:51:06;;;;;;;3.97;2.60;;;;;;;19.83;46.55;97891.25;20901503;28;20496;-60
2024/01/08 18:01:26;;;;;;;2.88;2.58;;;;;;;19.90;46.44;97889.75;20901377;28;20053;-59
2024/01/08 18:11:45;;;;;;;4.47;2.85;;;;;;;19.97;46.21;97905.56;20880796;28;20096;-65
2024/01/08 18:22:07;;;;;;;2.90;2.60;;;;;;;20.05;46.05;97917.59;20929709;28;20048;-65
2024/01/08 18:32:27;;;;;;;3.78;2.60;;;;;;;20.08;46.04;97922.41;20953720;28;20040;-60
2024/01/08 18:42:46;;;;;;;2.70;2.50;;;;;;;20.07;46.10;97926.22;20929892;28;20079;-59
2024/01/08 18:53:06;;;;;;;3.40;2.70;;;;;;;20.13;45.80;97946.66;20934706;28;20555;-60
2024/01/08 19:03:27;;;;;;;7.00;2.90;;;;;;;20.10;45.95;97949.97;20949067;28;20398;-58
2024/01/08 19:13:46;;;;;;;3.78;3.22;;;;;;;20.08;45.87;97949.47;20911964;28;20059;-53
2024/01/08 19:24:07;;;;;;;3.00;2.70;;;;;;;20.04;45.94;97964.69;20947928;28;20044;-53
2024/01/08 19:34:27;;;;;;;3.05;2.47;;;;;;;20.02;45.99;97973.09;20942887;28;20140;-51
2024/01/08 19:44:46;;;;;;;3.50;2.65;;;;;;;20.01;45.94;97976.09;20932970;28;20053;-52
2024/01/08 19:55:08;;;;;;;6.35;2.80;;;;;;;19.97;45.96;97986.72;20912975;28;20077;-56
2024/01/08 20:05:29;;;;;;;12.65;9.07;;;;;;;19.97;43.20;97992.13;20878152;28;20049;-54
2024/01/08 20:15:49;;;;;;;4.70;4.20;;;;;;;19.83;43.17;97992.09;20885220;28;20102;-56
2024/01/08 20:26:13;;;;;;;10.55;4.55;;;;;;;19.79;44.84;98014.63;20888617;28;20049;-56
2024/01/08 20:36:33;;;;;;;5.68;4.30;;;;;;;19.73;45.78;98030.91;20946038;28;20111;-56
2024/01/08 20:46:52;;;;;;;8.50;4.20;;;;;;;19.68;46.36;98030.97;20934145;28;20114;-57
2024/01/08 20:57:12;;;;;;;7.18;4.60;;;;;;;19.63;46.54;98030.25;20918666;28;20057;-56
2024/01/08 21:07:32;;;;;;;8.55;4.60;;;;;;;19.59;46.69;98034.66;20938509;28;20508;-57
2024/01/08 21:17:51;;;;;;;5.85;4.03;;;;;;;19.57;46.67;98037.63;20897254;28;20048;-55
2024/01/08 21:28:11;;;;;;;8.70;4.50;;;;;;;19.59;46.57;98045.47;20929011;28;20052;-53
2024/01/08 21:38:35;;;;;;;9.75;4.82;;;;;;;19.53;46.92;98053.63;20905327;28;20045;-54
2024/01/08 21:48:55;;;;;;;8.93;5.05;;;;;;;19.47;46.93;98065.63;20907893;28;20049;-53
2024/01/08 21:59:14;;;;;;;10.25;5.10;;;;;;;19.41;47.06;98080.31;20891019;28;20064;-54
2024/01/08 22:09:34;;;;;;;10.40;5.40;;;;;;;19.38;46.60;98078.19;20885178;28;20460;-53
2024/01/08 22:19:54;;;;;;;11.27;5.50;;;;;;;19.40;46.91;98078.69;20885243;28;20481;-54
2024/01/08 22:30:13;;;;;;;11.98;5.90;;;;;;;19.31;46.83;98086.66;20902651;28;20064;-54
2024/01/08 22:40:33;;;;;;;11.05;5.13;;;;;;;19.25;47.34;98095.94;20883980;28;20106;-53
2024/01/08 22:50:52;;;;;;;9.82;5.90;;;;;;;19.23;47.70;98097.28;20884749;28;20041;-54
2024/01/08 23:01:12;;;;;;;9.43;5.03;;;;;;;19.21;47.81;98088.69;20878447;28;20056;-54
2024/01/08 23:11:31;;;;;;;10.20;5.13;;;;;;;19.11;47.72;98085.03;20910177;28;20041;-53
2024/01/08 23:21:50;;;;;;;9.82;5.30;;;;;;;19.04;47.44;98076.47;20857235;28;20045;-54
2024/01/08 23:32:10;;;;;;;9.27;4.85;;;;;;;19.03;47.30;98064.06;20879339;28;20057;-54
2024/01/08 23:42:29;;;;;;;8.02;4.97;;;;;;;18.97;47.17;98073.31;20875891;28;20053;-53
2024/01/08 23:52:49;;;;;;;7.22;4.43;;;;;;;18.91;46.80;98074.47;20862257;28;20060;-56
